createdAt,value
2023-05-24T00:00:28.957Z,11.70
2023-05-24T00:05:52.574Z,12.80
2023-05-24T00:10:55.514Z,11.60
2023-05-24T00:15:58.414Z,10.70
2023-05-24T00:21:01.358Z,11.60
2023-05-24T00:26:05.696Z,12.00
2023-05-24T00:31:08.690Z,10.90
2023-05-24T00:36:11.572Z,14.90
2023-05-24T00:41:14.593Z,13.90
2023-05-24T00:46:44.165Z,13.10
2023-05-24T00:51:48.266Z,11.70
2023-05-24T00:56:51.580Z,13.80
2023-05-24T01:01:55.604Z,10.90
2023-05-24T01:07:48.657Z,13.10
2023-05-24T01:13:04.609Z,13.40
2023-05-24T01:18:26.171Z,10.20
2023-05-24T01:24:18.605Z,10.00
2023-05-24T01:29:23.879Z,10.50
2023-05-24T01:34:26.870Z,10.60
2023-05-24T01:39:31.104Z,14.90
2023-05-24T01:45:08.869Z,16.50
2023-05-24T01:50:27.014Z,11.80
2023-05-24T01:55:33.246Z,14.60
2023-05-24T02:00:37.633Z,14.20
2023-05-24T02:05:40.607Z,12.90
2023-05-24T02:10:43.803Z,13.80
2023-05-24T02:15:48.102Z,11.60
2023-05-24T02:20:51.509Z,12.80
2023-05-24T02:25:55.663Z,13.80
2023-05-24T02:30:58.927Z,15.20
2023-05-24T02:36:01.856Z,11.10
2023-05-24T02:41:04.830Z,11.30
2023-05-24T02:46:07.767Z,11.40
2023-05-24T02:51:10.652Z,13.20
2023-05-24T02:56:14.139Z,13.10
2023-05-24T03:01:17.063Z,12.70
2023-05-24T03:06:19.984Z,11.10
2023-05-24T03:11:24.107Z,13.00
2023-05-24T03:16:27.073Z,11.10
2023-05-24T03:21:30.078Z,10.90
2023-05-24T03:26:33.084Z,12.00
2023-05-24T03:31:36.181Z,12.90
2023-05-24T03:36:39.085Z,13.40
2023-05-24T03:41:41.947Z,9.60
2023-05-24T03:46:44.839Z,10.70
2023-05-24T03:51:47.729Z,12.70
2023-05-24T03:56:50.575Z,11.50
2023-05-24T04:01:53.496Z,11.40
2023-05-24T04:06:56.431Z,11.40
2023-05-24T04:11:59.296Z,13.70
2023-05-24T04:17:04.685Z,11.40
2023-05-24T04:22:07.748Z,11.70
2023-05-24T04:27:10.715Z,10.70
2023-05-24T04:32:14.891Z,11.00
2023-05-24T04:37:17.830Z,11.80
2023-05-24T04:42:20.744Z,13.90
2023-05-24T04:47:24.289Z,10.10
2023-05-24T04:52:27.938Z,14.30
2023-05-24T04:57:31.104Z,11.30
2023-05-24T05:02:35.142Z,13.30
2023-05-24T05:07:38.611Z,11.10
2023-05-24T05:12:41.484Z,11.40
2023-05-24T05:17:44.555Z,16.80
2023-05-24T05:22:48.929Z,12.70
2023-05-24T05:27:51.915Z,11.60
2023-05-24T05:32:54.918Z,13.60
2023-05-24T05:37:57.990Z,11.50
2023-05-24T05:43:01.020Z,10.70
2023-05-24T05:48:04.151Z,12.20
2023-05-24T05:53:07.024Z,11.80
2023-05-24T05:58:10.062Z,13.10
2023-05-24T06:03:13.503Z,11.00
2023-05-24T06:08:16.593Z,11.30
2023-05-24T06:13:19.500Z,10.80
2023-05-24T06:18:22.509Z,11.90
2023-05-24T06:23:25.482Z,14.80
2023-05-24T06:28:28.498Z,11.40
2023-05-24T06:33:32.673Z,12.60
2023-05-24T06:38:36.502Z,12.10
2023-05-24T06:43:40.641Z,10.40
2023-05-24T06:48:43.599Z,11.00
2023-05-24T06:53:46.785Z,12.60
2023-05-24T06:58:49.770Z,9.80
2023-05-24T07:03:52.883Z,9.10
2023-05-24T07:08:56.158Z,11.30
2023-05-24T07:13:59.050Z,9.10
2023-05-24T07:19:04.721Z,11.50
2023-05-24T07:24:08.673Z,8.40
2023-05-24T07:29:12.075Z,9.00
2023-05-24T07:34:15.891Z,9.00
2023-05-24T07:39:19.215Z,8.60
2023-05-24T07:44:22.554Z,11.30
2023-05-24T07:49:25.565Z,8.00
2023-05-24T07:54:28.460Z,10.90
2023-05-24T07:59:31.478Z,10.60
2023-05-24T08:04:35.050Z,7.50
2023-05-24T08:09:38.588Z,7.10
2023-05-24T08:14:41.715Z,8.70
2023-05-24T08:19:44.692Z,10.90
2023-05-24T08:24:47.579Z,7.10
2023-05-24T08:29:50.772Z,8.70
2023-05-24T08:35:00.390Z,9.20
2023-05-24T08:40:10.131Z,8.80
2023-05-24T08:45:15.937Z,9.00
2023-05-24T08:50:20.383Z,11.00
2023-05-24T08:55:24.751Z,8.50
2023-05-24T09:00:28.149Z,8.90
2023-05-24T09:05:32.806Z,10.10
2023-05-24T09:10:45.563Z,8.10
2023-05-24T09:16:00.300Z,8.90
2023-05-24T09:21:03.365Z,9.50
2023-05-24T09:26:11.536Z,10.60
2023-05-24T09:31:14.491Z,9.80
2023-05-24T09:36:17.560Z,8.90
2023-05-24T09:41:20.671Z,7.00
2023-05-24T09:46:23.738Z,8.20
2023-05-24T09:51:27.174Z,6.80
2023-05-24T09:56:33.076Z,9.30
2023-05-24T10:01:36.510Z,6.60
2023-05-24T10:06:43.150Z,10.60
2023-05-24T10:11:46.280Z,9.20
2023-05-24T10:16:49.278Z,15.40
2023-05-24T10:21:55.887Z,6.80
2023-05-24T10:27:02.480Z,6.30
2023-05-24T10:32:06.400Z,8.30
2023-05-24T10:37:09.731Z,8.90
2023-05-24T10:42:13.931Z,10.20
2023-05-24T10:47:20.832Z,10.30
2023-05-24T10:52:37.504Z,6.80
2023-05-24T10:57:41.399Z,7.40
2023-05-24T11:02:44.720Z,9.80
2023-05-24T11:07:48.484Z,7.70
2023-05-24T11:13:01.616Z,7.00
2023-05-24T11:18:12.931Z,8.30
2023-05-24T11:23:17.056Z,8.50
2023-05-24T11:28:22.168Z,7.60
2023-05-24T11:33:25.165Z,8.50
2023-05-24T11:38:28.141Z,12.60
2023-05-24T11:43:31.699Z,11.20
2023-05-24T11:48:35.131Z,9.00
2023-05-24T11:53:38.746Z,8.50
2023-05-24T11:58:56.366Z,10.20
2023-05-24T12:03:59.426Z,8.00
2023-05-24T12:09:05.655Z,6.40
2023-05-24T12:14:13.837Z,7.00
2023-05-24T12:19:32.340Z,7.40
2023-05-24T12:24:38.002Z,9.90
2023-05-24T12:29:42.619Z,8.50
2023-05-24T12:34:45.987Z,8.40
2023-05-24T12:39:48.915Z,10.00
2023-05-24T12:44:54.390Z,10.80
2023-05-24T12:49:57.381Z,8.60
2023-05-24T12:55:00.381Z,7.80
2023-05-24T13:00:05.772Z,8.40
2023-05-24T13:05:09.111Z,10.60
2023-05-24T13:10:13.963Z,9.20
2023-05-24T13:15:16.852Z,11.00
2023-05-24T13:20:22.471Z,9.50
2023-05-24T13:25:26.773Z,8.00
2023-05-24T13:30:30.230Z,8.20
2023-05-24T13:35:33.201Z,9.40
2023-05-24T13:40:37.856Z,8.40
2023-05-24T13:45:42.464Z,7.30
2023-05-24T13:50:45.625Z,7.30
2023-05-24T13:55:49.298Z,9.90
2023-05-24T14:00:52.321Z,7.60
2023-05-24T14:05:55.283Z,9.10
2023-05-24T14:10:58.226Z,9.60
2023-05-24T14:16:01.355Z,9.50
2023-05-24T14:21:04.374Z,9.00
2023-05-24T14:26:07.271Z,9.70
2023-05-24T14:31:10.297Z,9.40
2023-05-24T14:36:13.235Z,7.80
2023-05-24T14:41:16.372Z,7.90
2023-05-24T14:46:19.454Z,9.70
2023-05-24T14:51:22.627Z,8.20
2023-05-24T14:56:25.540Z,7.80
2023-05-24T15:01:28.618Z,7.40
2023-05-24T15:06:34.995Z,11.60
2023-05-24T15:11:38.148Z,7.10
2023-05-24T15:16:41.365Z,8.70
2023-05-24T15:21:44.366Z,10.50
2023-05-24T15:26:47.479Z,9.10
2023-05-24T15:31:50.491Z,9.90
2023-05-24T15:36:53.623Z,7.20
2023-05-24T15:41:57.151Z,7.30
2023-05-24T15:47:00.245Z,13.00
2023-05-24T15:52:05.150Z,7.70
2023-05-24T15:57:08.526Z,10.90
2023-05-24T16:02:11.589Z,9.10
2023-05-24T16:07:14.554Z,8.70
2023-05-24T16:12:18.901Z,8.10
2023-05-24T16:17:21.976Z,8.80
2023-05-24T16:22:25.211Z,10.90
2023-05-24T16:27:28.319Z,7.50
2023-05-24T16:32:31.700Z,8.30
2023-05-24T16:37:35.029Z,8.70
2023-05-24T16:42:38.032Z,8.20
2023-05-24T16:47:41.138Z,9.60
2023-05-24T16:52:45.387Z,11.40
2023-05-24T16:57:48.342Z,9.10
2023-05-24T17:02:51.288Z,9.50
2023-05-24T17:07:55.635Z,8.20
2023-05-24T17:12:58.985Z,9.20
2023-05-24T17:18:01.984Z,10.50
2023-05-24T17:23:04.897Z,13.40
2023-05-24T17:28:07.834Z,7.90
2023-05-24T17:33:10.744Z,9.60
2023-05-24T17:38:13.650Z,12.00
2023-05-24T17:43:16.484Z,9.20
2023-05-24T17:48:19.435Z,8.70
2023-05-24T17:53:31.332Z,9.70
2023-05-24T17:58:38.057Z,10.90
2023-05-24T18:03:42.777Z,13.70
2023-05-24T18:08:45.818Z,15.50
2023-05-24T18:13:48.811Z,8.20
2023-05-24T18:18:51.664Z,13.70
2023-05-24T18:23:54.677Z,21.80
2023-05-24T18:28:57.610Z,14.30
2023-05-24T18:34:01.906Z,9.70
2023-05-24T18:39:05.030Z,12.40
2023-05-24T18:44:07.924Z,15.70
2023-05-24T18:49:12.106Z,13.50
2023-05-24T18:54:15.049Z,10.90
2023-05-24T18:59:18.180Z,13.90
2023-05-24T19:04:21.764Z,14.60
2023-05-24T19:09:24.963Z,15.10
2023-05-24T19:14:27.906Z,14.00
2023-05-24T19:19:32.054Z,11.30
2023-05-24T19:24:35.300Z,13.80
2023-05-24T19:29:40.084Z,13.10
2023-05-24T19:34:44.124Z,12.50
2023-05-24T19:39:47.987Z,14.70
2023-05-24T19:44:54.980Z,15.60
2023-05-24T19:49:58.436Z,13.60
2023-05-24T19:55:01.423Z,20.20
2023-05-24T20:00:06.532Z,14.20
2023-05-24T20:05:10.217Z,17.40
2023-05-24T20:10:13.507Z,15.10
2023-05-24T20:15:21.607Z,16.30
2023-05-24T20:20:26.236Z,14.80
2023-05-24T20:25:31.174Z,18.60
2023-05-24T20:30:35.292Z,20.50
2023-05-24T20:35:38.874Z,12.70
2023-05-24T20:40:42.549Z,17.50
2023-05-24T20:45:46.090Z,14.10
2023-05-24T20:50:49.308Z,14.70
2023-05-24T20:55:52.469Z,19.50
2023-05-24T21:00:56.173Z,13.70
2023-05-24T21:06:00.198Z,12.90
2023-05-24T21:11:03.296Z,14.00
2023-05-24T21:16:06.336Z,19.80
2023-05-24T21:21:09.576Z,14.80
2023-05-24T21:26:12.520Z,13.50
2023-05-24T21:31:15.580Z,11.50
2023-05-24T21:36:18.611Z,12.60
2023-05-24T21:41:22.436Z,13.20
2023-05-24T21:46:28.024Z,13.10
2023-05-24T21:51:31.076Z,20.60
2023-05-24T21:56:34.463Z,23.80
2023-05-24T22:01:39.258Z,19.70
2023-05-24T22:06:42.885Z,15.90
2023-05-24T22:11:45.826Z,16.10
2023-05-24T22:16:49.480Z,13.40
2023-05-24T22:21:52.551Z,13.20
2023-05-24T22:26:56.006Z,12.80
2023-05-24T22:31:58.894Z,14.40
2023-05-24T22:37:01.850Z,17.40
2023-05-24T22:42:05.078Z,16.50
2023-05-24T22:47:12.087Z,14.40
2023-05-24T22:52:15.073Z,15.70
2023-05-24T22:57:21.870Z,12.90
2023-05-24T23:02:24.844Z,17.90
2023-05-24T23:07:27.810Z,11.60
2023-05-24T23:12:30.689Z,12.20
2023-05-24T23:17:33.581Z,13.90
2023-05-24T23:22:37.769Z,13.00
2023-05-24T23:27:41.233Z,11.30
2023-05-24T23:32:44.225Z,12.60
2023-05-24T23:37:47.124Z,14.70
2023-05-24T23:42:50.013Z,13.80
2023-05-24T23:47:52.873Z,16.40
2023-05-24T23:52:56.428Z,11.80
2023-05-24T23:58:00.462Z,12.70
